createdAt,value
2023-03-26T00:01:37.109Z,0.83
2023-03-26T00:04:07.262Z,0.80
2023-03-26T00:06:39.948Z,0.80
2023-03-26T00:09:13.451Z,1.13
2023-03-26T00:11:41.373Z,1.37
2023-03-26T00:14:13.771Z,0.80
2023-03-26T00:16:44.361Z,0.70
2023-03-26T00:19:12.740Z,0.90
2023-03-26T00:21:41.497Z,0.90
2023-03-26T00:24:15.402Z,0.83
2023-03-26T00:26:43.611Z,0.93
2023-03-26T00:29:12.045Z,0.90
2023-03-26T00:31:39.950Z,0.70
2023-03-26T00:34:07.207Z,1.00
2023-03-26T00:36:36.005Z,1.00
2023-03-26T00:39:06.146Z,1.20
2023-03-26T00:41:37.076Z,1.00
2023-03-26T00:44:04.827Z,1.00
2023-03-26T00:46:32.459Z,0.80
2023-03-26T00:49:00.642Z,0.70
2023-03-26T00:51:29.326Z,0.83
2023-03-26T00:53:57.809Z,0.73
2023-03-26T00:56:26.079Z,0.80
2023-03-26T00:58:53.143Z,0.80
2023-03-26T01:01:27.931Z,0.63
2023-03-26T01:04:08.200Z,1.03
2023-03-26T01:06:41.501Z,0.90
2023-03-26T01:09:21.352Z,0.70
2023-03-26T01:11:49.937Z,0.80
2023-03-26T01:14:23.527Z,1.10
2023-03-26T01:16:56.937Z,0.90
2023-03-26T01:19:57.200Z,0.60
2023-03-26T01:22:27.365Z,0.83
2023-03-26T01:24:56.646Z,0.90
2023-03-26T01:27:50.866Z,0.90
2023-03-26T01:30:23.031Z,1.63
2023-03-26T01:33:16.466Z,0.60
2023-03-26T01:36:30.760Z,0.50
2023-03-26T01:39:20.578Z,0.80
2023-03-26T01:41:52.022Z,0.70
2023-03-26T01:44:28.710Z,0.90
2023-03-26T01:46:56.898Z,0.90
2023-03-26T01:49:24.107Z,0.70
2023-03-26T01:51:51.569Z,0.60
2023-03-26T01:54:21.536Z,0.60
2023-03-26T01:57:13.497Z,0.57
2023-03-26T02:00:01.945Z,0.67
2023-03-26T02:03:23.060Z,0.60
2023-03-26T02:06:04.700Z,0.70
2023-03-26T02:08:41.403Z,0.60
2023-03-26T02:11:16.047Z,1.00
2023-03-26T02:13:46.331Z,0.77
2023-03-26T02:16:18.737Z,1.43
2023-03-26T02:18:51.429Z,0.97
2023-03-26T02:21:22.939Z,1.13
2023-03-26T02:23:58.016Z,0.90
2023-03-26T02:26:25.854Z,0.70
2023-03-26T02:28:59.243Z,0.70
2023-03-26T02:31:26.678Z,0.90
2023-03-26T02:33:56.676Z,0.60
2023-03-26T02:36:27.945Z,0.80
2023-03-26T02:39:00.311Z,0.63
2023-03-26T02:41:29.621Z,0.90
2023-03-26T02:44:05.754Z,0.70
2023-03-26T02:46:51.330Z,0.80
2023-03-26T02:49:41.538Z,0.80
2023-03-26T02:52:09.381Z,0.77
2023-03-26T02:54:37.362Z,0.83
2023-03-26T02:57:13.119Z,0.93
2023-03-26T03:00:09.090Z,0.70
2023-03-26T03:02:38.714Z,0.70
2023-03-26T03:05:31.513Z,0.90
2023-03-26T03:08:18.433Z,0.60
2023-03-26T03:11:23.616Z,0.60
2023-03-26T03:13:53.684Z,0.77
2023-03-26T03:16:23.812Z,0.67
2023-03-26T03:18:58.075Z,0.77
2023-03-26T03:21:46.152Z,0.70
2023-03-26T03:24:14.053Z,0.70
2023-03-26T03:26:46.287Z,1.00
2023-03-26T03:29:33.619Z,1.10
2023-03-26T03:32:22.755Z,0.87
2023-03-26T03:34:52.547Z,0.80
2023-03-26T03:37:20.671Z,1.07
2023-03-26T03:39:52.286Z,0.80
2023-03-26T03:42:22.134Z,0.80
2023-03-26T03:44:51.954Z,0.90
2023-03-26T03:47:39.122Z,0.80
2023-03-26T03:50:08.828Z,0.90
2023-03-26T03:52:37.882Z,1.17
2023-03-26T03:55:06.150Z,0.80
2023-03-26T03:57:41.890Z,0.83
2023-03-26T04:00:15.194Z,1.10
2023-03-26T04:02:54.689Z,0.73
2023-03-26T04:05:22.544Z,1.10
2023-03-26T04:07:51.256Z,1.00
2023-03-26T04:10:27.615Z,1.10
2023-03-26T04:13:14.550Z,0.90
2023-03-26T04:16:13.735Z,0.97
2023-03-26T04:18:41.212Z,0.70
2023-03-26T04:21:15.972Z,1.13
2023-03-26T04:23:45.269Z,0.87
2023-03-26T04:26:25.222Z,0.80
2023-03-26T04:29:24.013Z,1.33
2023-03-26T04:32:06.423Z,0.97
2023-03-26T04:34:34.698Z,1.10
2023-03-26T04:37:16.642Z,0.70
2023-03-26T04:39:50.187Z,0.93
2023-03-26T04:42:41.811Z,0.90
2023-03-26T04:45:22.902Z,0.93
2023-03-26T04:48:00.050Z,1.20
2023-03-26T04:50:27.412Z,0.70
2023-03-26T04:52:57.412Z,1.60
2023-03-26T04:56:21.896Z,1.13
2023-03-26T04:59:30.173Z,1.40
2023-03-26T05:02:00.149Z,1.07
2023-03-26T05:04:31.407Z,0.90
2023-03-26T05:06:59.983Z,1.00
2023-03-26T05:09:40.453Z,0.90
2023-03-26T05:12:13.233Z,1.00
2023-03-26T05:14:54.189Z,1.00
2023-03-26T05:17:42.647Z,0.87
2023-03-26T05:20:22.308Z,1.20
2023-03-26T05:22:50.820Z,1.10
2023-03-26T05:25:30.166Z,1.37
2023-03-26T05:27:58.748Z,1.00
2023-03-26T05:30:31.995Z,1.20
2023-03-26T05:33:04.367Z,1.00
2023-03-26T05:35:41.125Z,0.83
2023-03-26T05:38:09.581Z,1.03
2023-03-26T05:40:37.100Z,0.90
2023-03-26T05:43:06.133Z,1.10
2023-03-26T05:45:39.965Z,1.33
2023-03-26T05:48:28.029Z,1.10
2023-03-26T05:50:57.579Z,1.00
2023-03-26T05:53:28.277Z,1.60
2023-03-26T05:56:14.419Z,1.03
2023-03-26T05:59:00.489Z,0.90
2023-03-26T06:01:46.080Z,0.90
2023-03-26T06:04:17.164Z,1.23
2023-03-26T06:07:13.618Z,1.00
2023-03-26T06:09:45.225Z,1.03
2023-03-26T06:12:12.460Z,1.13
2023-03-26T06:14:42.961Z,1.13
2023-03-26T06:17:18.440Z,1.00
2023-03-26T06:20:12.459Z,1.03
2023-03-26T06:22:43.670Z,1.00
2023-03-26T06:25:41.433Z,1.03
2023-03-26T06:28:27.047Z,1.33
2023-03-26T06:31:07.087Z,1.30
2023-03-26T06:33:41.971Z,0.80
2023-03-26T06:36:11.432Z,0.93
2023-03-26T06:38:38.832Z,1.00
2023-03-26T06:41:08.023Z,0.90
2023-03-26T06:43:51.432Z,1.07
2023-03-26T06:46:36.757Z,1.13
2023-03-26T06:49:16.147Z,1.33
2023-03-26T06:52:06.094Z,1.20
2023-03-26T06:54:46.620Z,1.30
2023-03-26T06:57:33.050Z,0.93
2023-03-26T07:00:29.234Z,0.93
2023-03-26T07:03:23.795Z,0.90
2023-03-26T07:06:17.483Z,1.07
2023-03-26T07:09:04.352Z,1.00
2023-03-26T07:11:37.301Z,1.17
2023-03-26T07:14:24.650Z,0.90
2023-03-26T07:17:03.832Z,1.33
2023-03-26T07:19:46.400Z,1.23
2023-03-26T07:22:22.015Z,0.80
2023-03-26T07:25:15.577Z,0.90
2023-03-26T07:28:25.464Z,1.07
2023-03-26T07:31:51.700Z,1.03
2023-03-26T07:35:07.384Z,1.20
2023-03-26T07:38:34.105Z,1.03
2023-03-26T07:41:28.213Z,1.10
2023-03-26T07:44:23.933Z,0.80
2023-03-26T07:47:27.741Z,1.17
2023-03-26T07:50:23.061Z,1.10
2023-03-26T07:53:08.573Z,1.17
2023-03-26T07:56:05.316Z,1.10
2023-03-26T07:59:31.535Z,1.07
2023-03-26T08:02:31.975Z,0.80
2023-03-26T08:05:45.993Z,1.00
2023-03-26T08:09:17.493Z,0.90
2023-03-26T08:13:12.401Z,1.00
2023-03-26T08:15:50.023Z,1.37
2023-03-26T08:18:31.409Z,0.83
2023-03-26T08:21:14.078Z,1.27
2023-03-26T08:24:09.573Z,1.10
2023-03-26T08:27:18.777Z,1.57
2023-03-26T08:30:12.796Z,1.00
2023-03-26T08:32:40.974Z,1.10
2023-03-26T08:35:13.478Z,1.13
2023-03-26T08:37:40.588Z,1.10
2023-03-26T08:40:09.788Z,1.23
2023-03-26T08:43:12.714Z,0.90
2023-03-26T08:46:15.531Z,1.63
2023-03-26T08:48:48.658Z,1.20
2023-03-26T08:51:34.397Z,1.00
2023-03-26T08:54:56.846Z,1.00
2023-03-26T08:57:48.781Z,1.70
2023-03-26T09:00:54.785Z,1.00
2023-03-26T09:03:38.327Z,1.20
2023-03-26T09:06:30.148Z,1.43
2023-03-26T09:09:43.939Z,0.90
2023-03-26T09:12:46.429Z,1.00
2023-03-26T09:15:38.158Z,1.70
2023-03-26T09:18:42.576Z,1.03
2023-03-26T09:21:37.924Z,1.10
2023-03-26T09:24:37.834Z,1.03
2023-03-26T09:27:36.296Z,1.20
2023-03-26T09:30:48.277Z,1.17
2023-03-26T09:34:06.960Z,1.37
2023-03-26T09:37:05.858Z,1.20
2023-03-26T09:40:13.244Z,1.23
2023-03-26T09:43:22.473Z,1.30
2023-03-26T09:46:27.188Z,1.57
2023-03-26T09:49:21.629Z,1.20
2023-03-26T09:52:16.098Z,1.30
2023-03-26T09:55:42.203Z,1.37
2023-03-26T09:58:46.137Z,1.07
2023-03-26T10:01:59.326Z,1.00
2023-03-26T10:05:02.200Z,1.00
2023-03-26T10:07:59.140Z,1.00
2023-03-26T10:10:56.044Z,1.03
2023-03-26T10:13:26.219Z,1.67
2023-03-26T10:16:14.438Z,1.10
2023-03-26T10:18:41.497Z,0.90
2023-03-26T10:21:41.226Z,1.40
2023-03-26T10:24:21.219Z,0.97
2023-03-26T10:27:19.813Z,0.93
2023-03-26T10:30:29.273Z,1.20
2023-03-26T10:33:55.854Z,0.80
2023-03-26T10:37:01.621Z,1.03
2023-03-26T10:39:44.029Z,1.00
2023-03-26T10:42:58.181Z,1.00
2023-03-26T10:46:05.436Z,1.30
2023-03-26T10:49:04.507Z,1.10
2023-03-26T10:51:54.952Z,1.97
2023-03-26T10:54:58.409Z,1.10
2023-03-26T10:57:34.821Z,1.17
2023-03-26T11:00:25.415Z,1.07
2023-03-26T11:03:43.975Z,1.10
2023-03-26T11:06:55.429Z,1.07
2023-03-26T11:09:55.074Z,1.23
2023-03-26T11:13:21.903Z,0.97
2023-03-26T11:16:11.240Z,1.10
2023-03-26T11:19:09.857Z,0.70
2023-03-26T11:21:59.541Z,0.70
2023-03-26T11:25:07.065Z,0.80
2023-03-26T11:28:09.747Z,0.83
2023-03-26T11:30:59.704Z,1.13
2023-03-26T11:33:37.028Z,1.10
2023-03-26T11:36:10.784Z,0.80
2023-03-26T11:38:43.734Z,0.90
2023-03-26T11:41:24.071Z,1.00
2023-03-26T11:44:00.854Z,0.97
2023-03-26T11:46:33.130Z,0.63
2023-03-26T11:49:11.153Z,0.67
2023-03-26T11:51:41.376Z,1.20
2023-03-26T11:54:12.713Z,0.80
2023-03-26T11:57:05.316Z,0.80
2023-03-26T11:59:58.060Z,0.63
2023-03-26T12:02:34.933Z,1.00
2023-03-26T12:05:13.407Z,0.80
2023-03-26T12:08:20.153Z,0.87
2023-03-26T12:11:02.561Z,0.80
2023-03-26T12:13:39.984Z,0.90
2023-03-26T12:16:15.967Z,1.13
2023-03-26T12:18:46.155Z,0.80
2023-03-26T12:21:18.403Z,1.20
2023-03-26T12:23:58.501Z,1.13
2023-03-26T12:26:47.051Z,1.67
2023-03-26T12:29:17.785Z,1.57
2023-03-26T12:31:58.990Z,0.97
2023-03-26T12:34:36.173Z,1.30
2023-03-26T12:37:06.906Z,1.40
2023-03-26T12:40:09.109Z,1.03
2023-03-26T12:44:47.003Z,1.20
2023-03-26T12:45:32.674Z,1.17
2023-03-26T12:48:03.881Z,1.10
2023-03-26T12:50:39.465Z,0.77
2023-03-26T12:53:16.032Z,1.00
2023-03-26T12:55:52.997Z,1.00
2023-03-26T12:58:38.100Z,1.10
2023-03-26T13:01:31.081Z,0.80
2023-03-26T13:04:19.660Z,1.20
2023-03-26T13:07:01.963Z,0.97
2023-03-26T13:09:58.190Z,1.73
2023-03-26T13:12:38.244Z,1.93
2023-03-26T13:15:18.233Z,1.90
2023-03-26T13:18:19.864Z,0.93
2023-03-26T13:21:21.301Z,1.10
2023-03-26T13:24:26.955Z,1.30
2023-03-26T13:27:44.246Z,1.00
2023-03-26T13:30:31.320Z,0.90
2023-03-26T13:33:19.578Z,1.13
2023-03-26T13:36:23.064Z,1.27
2023-03-26T13:39:22.066Z,1.90
2023-03-26T13:42:27.001Z,1.10
2023-03-26T13:45:23.766Z,1.43
2023-03-26T13:47:55.768Z,1.50
2023-03-26T13:50:34.376Z,1.10
2023-03-26T13:53:19.478Z,1.40
2023-03-26T13:55:52.927Z,1.00
2023-03-26T13:58:49.314Z,1.87
2023-03-26T14:01:23.413Z,0.90
2023-03-26T14:04:03.835Z,1.27
2023-03-26T14:06:46.830Z,1.17
2023-03-26T14:09:42.078Z,1.30
2023-03-26T14:12:56.947Z,1.10
2023-03-26T14:15:48.661Z,1.20
2023-03-26T14:19:29.428Z,0.80
2023-03-26T14:22:23.829Z,1.00
2023-03-26T14:25:02.855Z,1.00
2023-03-26T14:27:52.020Z,0.90
2023-03-26T14:31:00.001Z,0.90
2023-03-26T14:33:39.255Z,1.20
2023-03-26T14:36:25.990Z,1.00
2023-03-26T14:39:37.146Z,1.20
2023-03-26T14:42:30.063Z,0.83
2023-03-26T14:45:09.514Z,0.87
2023-03-26T14:48:48.444Z,1.30
2023-03-26T14:51:58.499Z,0.80
2023-03-26T14:54:31.486Z,0.97
2023-03-26T14:57:13.991Z,0.90
2023-03-26T14:59:52.333Z,0.80
2023-03-26T15:02:22.716Z,0.70
2023-03-26T15:05:14.212Z,1.30
2023-03-26T15:08:24.604Z,1.67
2023-03-26T15:11:32.970Z,0.90
2023-03-26T15:14:31.330Z,1.30
2023-03-26T15:17:23.390Z,0.90
2023-03-26T15:20:41.777Z,0.90
2023-03-26T15:23:53.623Z,0.77
2023-03-26T15:27:14.105Z,0.90
2023-03-26T15:30:28.464Z,0.80
2023-03-26T15:33:34.451Z,0.87
2023-03-26T15:37:10.933Z,0.80
2023-03-26T15:40:38.165Z,1.00
2023-03-26T15:43:16.266Z,1.13
2023-03-26T15:45:58.400Z,0.80
2023-03-26T15:48:51.732Z,0.93
2023-03-26T15:51:57.177Z,0.97
2023-03-26T15:54:45.673Z,1.43
2023-03-26T15:57:47.038Z,0.70
2023-03-26T16:00:25.409Z,0.97
2023-03-26T16:03:25.938Z,1.07
2023-03-26T16:06:11.364Z,1.20
2023-03-26T16:09:05.929Z,1.23
2023-03-26T16:11:58.829Z,2.30
2023-03-26T16:14:35.868Z,1.20
2023-03-26T16:17:06.680Z,1.20
2023-03-26T16:20:14.253Z,1.30
2023-03-26T16:22:56.786Z,1.80
2023-03-26T16:25:35.574Z,1.40
2023-03-26T16:28:27.746Z,1.53
2023-03-26T16:31:35.061Z,1.50
2023-03-26T16:34:21.511Z,1.23
2023-03-26T16:36:51.590Z,1.87
2023-03-26T16:39:41.827Z,1.20
2023-03-26T16:42:37.901Z,2.00
2023-03-26T16:45:23.257Z,2.13
2023-03-26T16:48:10.724Z,2.60
2023-03-26T16:51:11.434Z,3.63
2023-03-26T16:53:46.086Z,3.23
2023-03-26T16:56:17.970Z,2.63
2023-03-26T16:59:07.976Z,1.63
2023-03-26T17:01:48.404Z,3.60
2023-03-26T17:04:23.634Z,2.20
2023-03-26T17:07:08.990Z,2.73
2023-03-26T17:09:59.375Z,1.90
2023-03-26T17:12:43.016Z,1.90
2023-03-26T17:15:34.534Z,1.87
2023-03-26T17:18:08.055Z,1.87
2023-03-26T17:20:49.327Z,1.77
2023-03-26T17:23:51.268Z,1.60
2023-03-26T17:27:03.680Z,1.47
2023-03-26T17:30:21.456Z,1.30
2023-03-26T17:33:07.368Z,1.70
2023-03-26T17:35:49.307Z,1.90
2023-03-26T17:38:25.804Z,1.73
2023-03-26T17:40:59.629Z,1.80
2023-03-26T17:43:46.188Z,1.70
2023-03-26T17:46:33.113Z,1.57
2023-03-26T17:49:12.953Z,1.80
2023-03-26T17:52:21.492Z,2.07
2023-03-26T17:54:52.602Z,1.77
2023-03-26T17:57:27.300Z,1.83
2023-03-26T17:59:59.717Z,1.20
2023-03-26T18:02:42.781Z,1.13
2023-03-26T18:05:14.820Z,1.27
2023-03-26T18:08:03.666Z,3.10
2023-03-26T18:10:54.120Z,2.37
2023-03-26T18:13:57.048Z,2.27
2023-03-26T18:16:43.797Z,1.93
2023-03-26T18:19:22.650Z,1.10
2023-03-26T18:21:52.436Z,1.40
2023-03-26T18:24:38.067Z,1.70
2023-03-26T18:27:12.011Z,1.50
2023-03-26T18:30:01.651Z,2.50
2023-03-26T18:32:33.418Z,2.60
2023-03-26T18:35:20.450Z,3.10
2023-03-26T18:37:53.493Z,2.80
2023-03-26T18:40:24.499Z,3.67
2023-03-26T18:42:56.136Z,4.40
2023-03-26T18:45:32.766Z,2.90
2023-03-26T18:48:04.729Z,2.43
2023-03-26T18:50:41.675Z,2.00
2023-03-26T18:53:22.417Z,2.27
2023-03-26T18:55:51.660Z,2.23
2023-03-26T18:58:30.196Z,1.80
2023-03-26T19:01:04.955Z,2.30
2023-03-26T19:03:36.885Z,6.67
2023-03-26T19:06:10.154Z,2.97
2023-03-26T19:08:40.246Z,1.33
2023-03-26T19:11:10.534Z,2.00
2023-03-26T19:13:43.004Z,2.07
2023-03-26T19:16:26.649Z,4.70
2023-03-26T19:18:54.332Z,1.10
2023-03-26T19:21:23.556Z,1.27
2023-03-26T19:23:53.165Z,1.30
2023-03-26T19:26:20.597Z,1.80
2023-03-26T19:28:51.517Z,1.63
2023-03-26T19:31:30.229Z,1.50
2023-03-26T19:34:35.427Z,1.63
2023-03-26T19:37:23.795Z,2.27
2023-03-26T19:40:07.344Z,1.27
2023-03-26T19:42:44.038Z,1.80
2023-03-26T19:45:19.431Z,1.40
2023-03-26T19:47:57.482Z,1.73
2023-03-26T19:50:36.711Z,1.70
2023-03-26T19:53:19.248Z,1.50
2023-03-26T19:56:05.170Z,1.70
2023-03-26T19:58:35.394Z,1.77
2023-03-26T20:01:04.628Z,1.57
2023-03-26T20:03:43.391Z,1.33
2023-03-26T20:06:18.157Z,1.20
2023-03-26T20:08:45.943Z,2.60
2023-03-26T20:11:37.913Z,2.53
2023-03-26T20:14:17.924Z,1.70
2023-03-26T20:16:46.009Z,1.57
2023-03-26T20:19:15.474Z,1.67
2023-03-26T20:21:44.438Z,2.17
2023-03-26T20:24:15.792Z,2.67
2023-03-26T20:26:44.626Z,2.67
2023-03-26T20:29:13.334Z,1.67
2023-03-26T20:31:42.113Z,1.70
2023-03-26T20:34:22.171Z,2.10
2023-03-26T20:36:55.326Z,2.27
2023-03-26T20:39:24.872Z,2.30
2023-03-26T20:41:54.423Z,1.83
2023-03-26T20:44:22.639Z,2.10
2023-03-26T20:46:50.938Z,3.27
2023-03-26T20:49:18.646Z,3.63
2023-03-26T20:51:46.783Z,2.87
2023-03-26T20:54:21.541Z,1.70
2023-03-26T20:56:49.668Z,2.10
2023-03-26T20:59:26.803Z,2.20
2023-03-26T21:01:57.040Z,1.57
2023-03-26T21:04:26.146Z,1.47
2023-03-26T21:07:00.411Z,2.03
2023-03-26T21:09:35.456Z,2.30
2023-03-26T21:12:09.797Z,1.53
2023-03-26T21:14:41.796Z,2.67
2023-03-26T21:17:19.453Z,2.10
2023-03-26T21:19:48.066Z,2.20
2023-03-26T21:22:43.473Z,2.10
2023-03-26T21:25:53.163Z,2.00
2023-03-26T21:28:48.806Z,2.40
2023-03-26T21:31:21.702Z,2.73
2023-03-26T21:33:50.683Z,2.77
2023-03-26T21:36:23.113Z,2.50
2023-03-26T21:38:54.701Z,2.33
2023-03-26T21:42:05.377Z,2.57
2023-03-26T21:44:34.211Z,2.40
2023-03-26T21:47:01.740Z,2.77
2023-03-26T21:49:29.586Z,2.70
2023-03-26T21:51:57.191Z,2.70
2023-03-26T21:54:29.041Z,3.47
2023-03-26T21:57:29.119Z,2.60
2023-03-26T22:00:11.612Z,1.93
2023-03-26T22:03:11.898Z,2.40
2023-03-26T22:05:56.496Z,1.87
2023-03-26T22:08:44.099Z,2.33
2023-03-26T22:11:12.721Z,2.43
2023-03-26T22:13:40.015Z,2.00
2023-03-26T22:16:10.756Z,2.07
2023-03-26T22:18:38.262Z,1.77
2023-03-26T22:21:05.986Z,1.60
2023-03-26T22:23:34.281Z,1.37
2023-03-26T22:26:05.424Z,1.80
2023-03-26T22:28:32.493Z,1.40
2023-03-26T22:31:00.350Z,2.73
2023-03-26T22:33:27.664Z,2.40
2023-03-26T22:35:56.407Z,2.20
2023-03-26T22:38:23.732Z,2.47
2023-03-26T22:40:58.090Z,2.03
2023-03-26T22:43:25.465Z,1.87
2023-03-26T22:45:55.755Z,1.90
2023-03-26T22:48:24.059Z,1.60
2023-03-26T22:51:06.444Z,1.60
2023-03-26T22:53:34.360Z,1.53
2023-03-26T22:56:01.841Z,1.43
2023-03-26T22:58:29.284Z,1.57
2023-03-26T23:01:12.327Z,2.20
2023-03-26T23:03:39.660Z,1.90
2023-03-26T23:06:10.740Z,1.70
2023-03-26T23:08:39.612Z,1.93
2023-03-26T23:11:19.268Z,2.10
2023-03-26T23:13:47.859Z,2.13
2023-03-26T23:16:17.114Z,2.13
2023-03-26T23:18:45.442Z,2.40
2023-03-26T23:21:19.325Z,2.97
2023-03-26T23:23:47.720Z,3.00
2023-03-26T23:26:15.092Z,3.70
2023-03-26T23:28:43.244Z,3.93
2023-03-26T23:31:12.570Z,4.13
2023-03-26T23:33:46.110Z,4.17
2023-03-26T23:36:17.812Z,4.13
2023-03-26T23:38:47.343Z,3.70
2023-03-26T23:41:17.046Z,4.13
2023-03-26T23:43:53.803Z,4.57
2023-03-26T23:46:25.788Z,4.70
2023-03-26T23:48:53.437Z,3.60
2023-03-26T23:51:21.230Z,3.20
2023-03-26T23:53:49.487Z,3.43
2023-03-26T23:56:17.415Z,2.93
2023-03-26T23:58:44.776Z,2.87
